createdAt,value
2022-08-22T00:02:01.819Z,66.94
2022-08-22T00:07:42.531Z,65.58
2022-08-22T00:12:44.941Z,63.85
2022-08-22T00:17:55.412Z,64.68
2022-08-22T00:23:17.664Z,64.08
2022-08-22T00:28:28.286Z,64.13
2022-08-22T00:33:51.889Z,63.92
2022-08-22T00:39:07.318Z,62.69
2022-08-22T00:44:15.339Z,61.08
2022-08-22T00:49:23.167Z,59.44
2022-08-22T00:55:12.407Z,59.25
2022-08-22T01:00:21.566Z,59.16
2022-08-22T01:05:48.578Z,58.95
2022-08-22T01:11:16.992Z,60.11
2022-08-22T01:16:41.952Z,60.13
2022-08-22T01:22:10.037Z,60.19
2022-08-22T01:27:34.590Z,60.12
2022-08-22T01:32:59.816Z,59.59
2022-08-22T01:38:10.917Z,59.73
2022-08-22T01:43:59.701Z,60.71
2022-08-22T01:48:58.190Z,60.67
2022-08-22T01:54:14.522Z,61.33
2022-08-22T01:59:33.758Z,61.21
2022-08-22T02:04:55.389Z,62.11
2022-08-22T02:10:06.339Z,61.59
2022-08-22T02:15:43.945Z,61.72
2022-08-22T02:20:49.074Z,62.23
2022-08-22T02:25:55.599Z,63.63
2022-08-22T02:31:29.474Z,62.71
2022-08-22T02:36:40.215Z,62.27
2022-08-22T02:42:11.119Z,62.73
2022-08-22T02:47:25.632Z,64.97
2022-08-22T02:52:40.157Z,61.23
2022-08-22T02:57:52.817Z,63.15
2022-08-22T03:03:22.669Z,65.45
2022-08-22T03:08:34.110Z,63.27
2022-08-22T03:13:40.216Z,63.80
2022-08-22T03:18:49.093Z,64.10
2022-08-22T03:24:18.423Z,61.95
2022-08-22T03:29:33.422Z,62.20
2022-08-22T03:34:36.319Z,61.72
2022-08-22T03:39:57.068Z,61.58
2022-08-22T03:45:07.866Z,62.76
2022-08-22T03:50:34.276Z,64.09
2022-08-22T03:56:17.837Z,63.38
2022-08-22T04:01:49.485Z,61.10
2022-08-22T04:07:35.425Z,61.81
2022-08-22T04:13:12.733Z,60.81
2022-08-22T04:18:29.516Z,61.38
2022-08-22T04:23:44.141Z,61.64
2022-08-22T04:28:57.238Z,61.66
2022-08-22T04:34:15.495Z,60.83
2022-08-22T04:39:40.287Z,61.57
2022-08-22T04:44:53.828Z,62.41
2022-08-22T04:50:03.739Z,62.69
2022-08-22T04:55:27.359Z,61.81
2022-08-22T05:00:51.593Z,63.07
2022-08-22T05:05:55.809Z,62.90
2022-08-22T05:10:59.609Z,63.38
2022-08-22T05:16:06.141Z,63.56
2022-08-22T05:21:11.130Z,64.18
2022-08-22T05:26:17.729Z,63.33
2022-08-22T05:31:34.456Z,63.48
2022-08-22T05:36:45.259Z,63.94
2022-08-22T05:41:49.430Z,63.87
2022-08-22T05:47:23.641Z,62.65
2022-08-22T05:53:03.388Z,62.46
2022-08-22T05:58:30.976Z,63.77
2022-08-22T06:04:08.061Z,64.33
2022-08-22T06:09:24.025Z,64.98
2022-08-22T06:14:46.431Z,65.95
2022-08-22T06:19:52.327Z,65.45
2022-08-22T06:24:57.830Z,64.28
2022-08-22T06:30:03.123Z,65.49
2022-08-22T06:35:15.593Z,64.42
2022-08-22T06:40:18.793Z,65.67
2022-08-22T06:45:31.830Z,65.34
2022-08-22T06:50:35.958Z,65.39
2022-08-22T06:55:42.240Z,66.31
2022-08-22T07:00:58.813Z,65.89
2022-08-22T07:06:15.990Z,68.00
2022-08-22T07:11:31.237Z,67.02
2022-08-22T07:16:42.851Z,67.71
2022-08-22T07:21:47.872Z,69.80
2022-08-22T07:26:58.797Z,67.07
2022-08-22T07:32:04.647Z,68.25
2022-08-22T07:37:16.702Z,66.86
2022-08-22T07:42:28.572Z,68.96
2022-08-22T07:47:52.762Z,67.88
2022-08-22T07:53:04.279Z,67.01
2022-08-22T07:58:08.190Z,68.93
2022-08-22T08:03:10.531Z,67.28
2022-08-22T08:08:34.305Z,65.87
2022-08-22T08:13:41.734Z,66.07
2022-08-22T08:18:48.463Z,68.18
2022-08-22T08:23:51.085Z,66.90
2022-08-22T08:28:57.234Z,68.18
2022-08-22T08:34:18.389Z,66.71
2022-08-22T08:39:20.305Z,66.75
2022-08-22T08:44:22.750Z,67.58
2022-08-22T08:49:35.712Z,69.03
2022-08-22T08:54:51.966Z,68.27
2022-08-22T09:00:06.908Z,67.83
2022-08-22T09:05:33.955Z,68.36
2022-08-22T09:10:54.102Z,66.17
2022-08-22T09:16:15.112Z,65.75
2022-08-22T09:21:30.595Z,67.15
2022-08-22T09:26:50.918Z,67.47
2022-08-22T09:32:21.144Z,67.14
2022-08-22T09:37:38.113Z,67.41
2022-08-22T09:42:53.178Z,68.30
2022-08-22T09:48:29.809Z,66.34
2022-08-22T09:53:37.836Z,70.02
2022-08-22T09:59:21.746Z,66.26
2022-08-22T10:04:51.437Z,65.76
2022-08-22T10:10:06.310Z,67.82
2022-08-22T10:15:08.886Z,67.62
2022-08-22T10:20:28.479Z,66.71
2022-08-22T10:25:34.556Z,65.40
2022-08-22T10:30:42.969Z,67.56
2022-08-22T10:35:51.093Z,65.75
2022-08-22T10:41:36.281Z,66.37
2022-08-22T10:46:42.387Z,66.45
2022-08-22T10:51:50.018Z,68.63
2022-08-22T10:57:13.426Z,66.68
2022-08-22T11:02:35.212Z,66.11
2022-08-22T11:08:04.438Z,66.92
2022-08-22T11:13:43.724Z,65.52
2022-08-22T11:19:15.655Z,65.85
2022-08-22T11:24:56.765Z,66.10
2022-08-22T11:30:10.110Z,65.19
2022-08-22T11:35:27.073Z,67.04
2022-08-22T11:41:03.713Z,65.01
2022-08-22T11:46:29.577Z,63.79
2022-08-22T11:51:53.016Z,67.68
2022-08-22T11:57:07.062Z,64.58
2022-08-22T12:02:26.646Z,64.20
2022-08-22T12:07:38.001Z,64.18
2022-08-22T12:12:39.964Z,65.53
2022-08-22T12:18:09.016Z,64.93
2022-08-22T12:23:43.416Z,63.31
2022-08-22T12:28:57.508Z,64.10
2022-08-22T12:34:32.980Z,64.81
2022-08-22T12:39:54.264Z,64.96
2022-08-22T12:45:33.887Z,64.55
2022-08-22T12:50:43.112Z,64.93
2022-08-22T12:55:51.546Z,65.29
2022-08-22T13:01:00.829Z,65.03
2022-08-22T13:06:25.509Z,64.99
2022-08-22T13:11:30.980Z,63.27
2022-08-22T13:16:49.018Z,62.85
2022-08-22T13:22:10.054Z,63.30
2022-08-22T13:27:35.108Z,63.16
2022-08-22T13:32:45.641Z,63.74
2022-08-22T13:37:52.489Z,63.11
2022-08-22T13:43:05.543Z,65.23
2022-08-22T13:48:17.346Z,64.50
2022-08-22T13:53:49.374Z,64.40
2022-08-22T13:59:07.816Z,64.26
2022-08-22T14:04:36.092Z,64.17
2022-08-22T14:09:54.674Z,63.68
2022-08-22T14:15:04.483Z,63.33
2022-08-22T14:20:32.218Z,63.07
2022-08-22T14:25:40.664Z,62.04
2022-08-22T14:31:13.325Z,62.72
2022-08-22T14:36:43.327Z,62.49
2022-08-22T14:41:58.551Z,62.51
2022-08-22T14:47:15.814Z,62.48
2022-08-22T14:52:44.675Z,62.80
2022-08-22T14:57:57.905Z,62.81
2022-08-22T15:03:14.978Z,63.00
2022-08-22T15:08:51.624Z,62.88
2022-08-22T15:14:03.397Z,62.65
2022-08-22T15:19:27.237Z,63.02
2022-08-22T15:24:30.388Z,63.83
2022-08-22T15:29:34.189Z,63.59
2022-08-22T15:34:42.053Z,64.16
2022-08-22T15:40:02.855Z,63.74
2022-08-22T15:45:34.135Z,63.35
2022-08-22T15:50:56.919Z,63.39
2022-08-22T15:56:15.390Z,64.07
2022-08-22T16:01:24.314Z,63.84
2022-08-22T16:06:44.757Z,63.71
2022-08-22T16:11:55.735Z,63.77
2022-08-22T16:17:03.826Z,62.39
2022-08-22T16:22:08.492Z,62.73
2022-08-22T16:27:22.733Z,63.29
2022-08-22T16:32:28.372Z,62.93
2022-08-22T16:37:50.810Z,63.41
2022-08-22T16:43:17.589Z,63.52
2022-08-22T16:48:25.361Z,62.61
2022-08-22T16:53:30.158Z,62.00
2022-08-22T16:59:13.894Z,61.38
2022-08-22T17:04:59.237Z,60.90
2022-08-22T17:10:26.896Z,61.36
2022-08-22T17:15:59.290Z,60.78
2022-08-22T17:21:29.006Z,62.04
2022-08-22T17:26:56.385Z,62.38
2022-08-22T17:32:07.517Z,62.41
2022-08-22T17:37:16.101Z,63.24
2022-08-22T17:42:37.705Z,64.49
2022-08-22T17:47:49.667Z,63.42
2022-08-22T17:53:11.384Z,61.95
2022-08-22T17:58:37.935Z,62.27
2022-08-22T18:03:52.848Z,61.78
2022-08-22T18:14:35.821Z,62.80
2022-08-22T18:19:55.338Z,64.22
2022-08-22T18:25:03.655Z,64.09
2022-08-22T18:30:19.918Z,63.18
2022-08-22T18:35:29.021Z,64.53
2022-08-22T18:40:37.230Z,65.51
2022-08-22T18:45:51.566Z,66.20
2022-08-22T18:51:35.887Z,65.39
2022-08-22T18:56:54.738Z,64.96
2022-08-22T19:02:54.269Z,64.99
2022-08-22T19:08:37.017Z,63.93
2022-08-22T19:13:47.767Z,63.18
2022-08-22T19:18:58.188Z,62.12
2022-08-22T19:24:01.231Z,62.64
2022-08-22T19:29:12.298Z,61.57
2022-08-22T19:34:39.862Z,64.02
2022-08-22T19:39:41.848Z,63.32
2022-08-22T19:44:54.805Z,61.44
2022-08-22T19:50:10.452Z,61.68
2022-08-22T19:55:18.344Z,61.25
2022-08-22T20:00:53.613Z,61.83
2022-08-22T20:06:05.950Z,63.63
2022-08-22T20:11:39.066Z,63.93
2022-08-22T20:17:01.890Z,63.47
2022-08-22T20:22:08.134Z,64.91
2022-08-22T20:27:15.591Z,65.19
2022-08-22T20:32:23.187Z,66.08
2022-08-22T20:37:45.514Z,65.60
2022-08-22T20:42:53.978Z,65.47
2022-08-22T20:47:56.385Z,65.88
2022-08-22T20:53:09.635Z,65.65
2022-08-22T20:58:27.204Z,66.63
2022-08-22T21:03:52.167Z,66.40
2022-08-22T21:09:30.025Z,66.18
2022-08-22T21:14:34.876Z,66.48
2022-08-22T21:19:36.919Z,67.75
2022-08-22T21:24:38.979Z,67.16
2022-08-22T21:29:46.754Z,66.78
2022-08-22T21:34:49.807Z,65.83
2022-08-22T21:40:04.558Z,65.53
2022-08-22T21:45:11.317Z,66.51
2022-08-22T21:50:13.209Z,66.73
2022-08-22T21:55:30.425Z,65.77
2022-08-22T22:01:24.838Z,66.07
2022-08-22T22:06:27.658Z,67.34
2022-08-22T22:11:29.721Z,66.98
2022-08-22T22:16:32.733Z,66.80
2022-08-22T22:21:34.716Z,66.48
2022-08-22T22:26:36.716Z,66.79
2022-08-22T22:31:38.763Z,66.70
2022-08-22T22:36:42.240Z,68.06
2022-08-22T22:41:44.246Z,67.82
2022-08-22T22:46:46.218Z,68.02
2022-08-22T22:51:49.135Z,67.50
2022-08-22T22:56:51.195Z,67.47
2022-08-22T23:02:09.136Z,67.16
2022-08-22T23:07:13.111Z,66.60
2022-08-22T23:12:15.506Z,65.75
2022-08-22T23:17:18.295Z,65.68
2022-08-22T23:22:20.672Z,65.74
2022-08-22T23:27:22.797Z,65.46
2022-08-22T23:32:24.761Z,64.41
2022-08-22T23:37:26.754Z,63.21
2022-08-22T23:42:29.599Z,63.47
2022-08-22T23:47:31.590Z,63.04
2022-08-22T23:52:34.310Z,63.26
2022-08-22T23:57:36.368Z,63.62
